Time;durP1;ratioP1;P1;durP2;ratioP2;P2;SDS_P1;SDS_P2;PMS_P1;PMS_P2;Temp;Humidity;BMP_temperature;BMP_pressure;BME280_temperature;BME280_humidity;BME280_pressure;Samples;Min_cycle;Max_cycle;Signal;HPM_P1;HPM_P2
2022/08/20 00:00:19;;;;;;;;;;;21.30;99.90;;;;;;4966142;28;21271;-76
2022/08/20 00:02:47;;;;;;;;;;;20.50;99.90;;;;;;4964277;28;19938;-76
2022/08/20 00:05:14;;;;;;;;;;;21.20;99.90;;;;;;4965248;28;20429;-77
2022/08/20 00:07:40;;;;;;;;;;;20.50;99.90;;;;;;4964913;28;20017;-77
2022/08/20 00:10:08;;;;;;;;;;;21.20;99.90;;;;;;4951244;28;19981;-77
2022/08/20 00:12:35;;;;;;;;;;;21.20;99.90;;;;;;4966835;28;20499;-77
2022/08/20 00:15:04;;;;;;;;;;;21.10;99.90;;;;;;4968767;28;20380;-76
2022/08/20 00:17:33;;;;;;;;;;;21.10;99.90;;;;;;4972166;28;19929;-77
2022/08/20 00:20:00;;;;;;;;;;;21.10;99.90;;;;;;4967817;28;19936;-76
2022/08/20 00:22:26;;;;;;;;;;;21.10;99.90;;;;;;4968942;28;19949;-76
2022/08/20 00:24:53;;;;;;;;;;;21.00;99.90;;;;;;4970046;28;19953;-77
2022/08/20 00:27:20;;;;;;;;;;;21.00;99.90;;;;;;4969437;28;20406;-76
2022/08/20 00:29:47;;;;;;;;;;;21.00;99.90;;;;;;4969178;28;19980;-77
2022/08/20 00:32:15;;;;;;;;;;;21.00;99.90;;;;;;4970582;28;19929;-76
2022/08/20 00:34:41;;;;;;;;;;;20.90;99.90;;;;;;4968609;28;19985;-77
2022/08/20 00:37:08;;;;;;;;;;;20.90;99.90;;;;;;4969595;28;20024;-77
2022/08/20 00:39:35;;;;;;;;;;;20.90;99.90;;;;;;4966497;28;20075;-77
2022/08/20 00:42:02;;;;;;;;;;;20.80;99.90;;;;;;4967358;28;19937;-77
2022/08/20 00:44:28;;;;;;;;;;;20.70;99.90;;;;;;4968564;28;19926;-76
2022/08/20 00:46:55;;;;;;;;;;;20.70;99.90;;;;;;4968632;28;19933;-76
2022/08/20 00:49:26;;;;;;;;;;;20.70;99.90;;;;;;4969105;28;20407;-77
2022/08/20 00:51:56;;;;;;;;;;;20.70;99.90;;;;;;4965762;28;19930;-76
2022/08/20 00:54:24;;;;;;;;;;;20.60;99.90;;;;;;4971463;28;19926;-76
2022/08/20 00:56:54;;;;;;;;;;;20.60;99.90;;;;;;4970164;28;19926;-77
2022/08/20 00:59:22;;;;;;;;;;;20.60;99.90;;;;;;4964247;28;19926;-77
2022/08/20 01:01:49;;;;;;;;;;;20.60;99.90;;;;;;4965614;28;20415;-76
2022/08/20 01:04:17;;;;;;;;;;;20.50;99.90;;;;;;4965354;28;19973;-75
2022/08/20 01:06:46;;;;;;;;;;;20.50;99.90;;;;;;4970422;28;19925;-77
2022/08/20 01:09:13;;;;;;;;;;;20.50;99.90;;;;;;4981047;28;19961;-76
2022/08/20 01:11:40;;;;;;;;;;;20.50;99.90;;;;;;4977593;28;19918;-77
2022/08/20 01:14:19;;;;;;;;;;;20.40;99.90;;;;;;4983974;28;20022;-76
2022/08/20 01:16:53;;;;;;;;;;;20.40;99.90;;;;;;4973492;28;20008;-77
2022/08/20 01:19:21;;;;;;;;;;;20.40;99.90;;;;;;4964907;28;20150;-77
2022/08/20 01:21:49;;;;;;;;;;;20.40;99.90;;;;;;4967806;28;20032;-77
2022/08/20 01:24:19;;;;;;;;;;;20.30;99.90;;;;;;4966207;28;19933;-77
2022/08/20 01:26:49;;;;;;;;;;;20.40;99.90;;;;;;4964355;28;19925;-77
2022/08/20 01:29:18;;;;;;;;;;;20.30;99.90;;;;;;4966491;28;20714;-76
2022/08/20 01:31:45;;;;;;;;;;;20.20;99.90;;;;;;4964193;28;19930;-76
2022/08/20 01:34:14;;;;;;;;;;;20.30;99.90;;;;;;4967030;28;19937;-77
2022/08/20 01:36:42;;;;;;;;;;;20.10;99.90;;;;;;4967166;28;19929;-77
2022/08/20 01:39:10;;;;;;;;;;;20.10;99.90;;;;;;4952997;28;19984;-77
2022/08/20 01:41:52;;;;;;;;;;;20.20;99.90;;;;;;4965911;28;19932;-77
2022/08/20 01:44:21;;;;;;;;;;;20.10;99.90;;;;;;4972739;28;19922;-77
2022/08/20 01:46:49;;;;;;;;;;;20.10;99.90;;;;;;4979812;28;20475;-77
2022/08/20 01:49:17;;;;;;;;;;;20.10;99.90;;;;;;4971104;28;19930;-77
2022/08/20 01:51:44;;;;;;;;;;;20.10;99.90;;;;;;4971819;28;20013;-77
2022/08/20 01:54:11;;;;;;;;;;;20.10;99.90;;;;;;4969870;28;19937;-77
2022/08/20 01:56:50;;;;;;;;;;;20.10;99.90;;;;;;4966761;28;19930;-77
2022/08/20 01:59:16;;;;;;;;;;;20.10;99.90;;;;;;4964139;28;19933;-76
2022/08/20 02:01:44;;;;;;;;;;;20.20;99.90;;;;;;4967759;28;19933;-76
2022/08/20 02:04:12;;;;;;;;;;;20.20;99.90;;;;;;4966387;28;20040;-76
2022/08/20 02:06:42;;;;;;;;;;;20.10;99.90;;;;;;4966621;28;19978;-77
2022/08/20 02:09:09;;;;;;;;;;;20.10;99.90;;;;;;4977387;28;19932;-77
2022/08/20 02:11:36;;;;;;;;;;;20.10;99.90;;;;;;4979415;28;19925;-76
2022/08/20 02:14:06;;;;;;;;;;;20.10;99.90;;;;;;4982860;28;19926;-76
2022/08/20 02:16:35;;;;;;;;;;;20.20;99.90;;;;;;4986659;28;20461;-77
2022/08/20 02:19:08;;;;;;;;;;;20.10;99.90;;;;;;4981346;28;19965;-76
2022/08/20 02:21:36;;;;;;;;;;;20.10;99.90;;;;;;4967592;28;19969;-76
2022/08/20 02:24:05;;;;;;;;;;;20.20;99.90;;;;;;4973058;28;19937;-78
2022/08/20 02:26:32;;;;;;;;;;;20.10;99.90;;;;;;4969797;28;19930;-77
2022/08/20 02:28:59;;;;;;;;;;;20.10;99.90;;;;;;4967820;28;19930;-77
2022/08/20 02:31:25;;;;;;;;;;;20.20;99.90;;;;;;4968156;28;20015;-77
2022/08/20 02:33:52;;;;;;;;;;;20.20;99.90;;;;;;4967868;28;20414;-77
2022/08/20 02:36:20;;;;;;;;;;;20.20;99.90;;;;;;4967083;28;20359;-77
2022/08/20 02:38:47;;;;;;;;;;;20.20;99.90;;;;;;4965388;28;19930;-77
2022/08/20 02:41:14;;;;;;;;;;;20.10;99.90;;;;;;4967313;28;19922;-76
2022/08/20 02:43:41;;;;;;;;;;;20.10;99.90;;;;;;4968675;28;20025;-80
2022/08/20 02:46:08;;;;;;;;;;;20.10;99.90;;;;;;4969627;28;19930;-80
2022/08/20 02:48:34;;;;;;;;;;;20.20;99.90;;;;;;4967604;28;19930;-79
2022/08/20 02:51:02;;;;;;;;;;;20.10;99.90;;;;;;4971624;28;19929;-80
2022/08/20 02:53:32;;;;;;;;;;;20.10;99.90;;;;;;4970576;28;19926;-80
2022/08/20 02:55:59;;;;;;;;;;;20.10;99.90;;;;;;4971612;28;19930;-79
2022/08/20 02:58:26;;;;;;;;;;;20.00;99.90;;;;;;4968680;28;20029;-80
2022/08/20 03:00:55;;;;;;;;;;;20.00;99.90;;;;;;4968860;28;19930;-79
2022/08/20 03:03:23;;;;;;;;;;;20.00;99.90;;;;;;4952901;28;19928;-79
2022/08/20 03:05:50;;;;;;;;;;;19.90;99.90;;;;;;4974706;28;19930;-80
2022/08/20 03:08:17;;;;;;;;;;;19.90;99.90;;;;;;4971915;28;19934;-79
2022/08/20 03:10:46;;;;;;;;;;;19.90;99.90;;;;;;4963004;28;19945;-81
2022/08/20 03:13:13;;;;;;;;;;;19.80;99.90;;;;;;4975859;28;19984;-81
2022/08/20 03:15:41;;;;;;;;;;;19.80;99.90;;;;;;4972676;28;20463;-81
2022/08/20 03:18:07;;;;;;;;;;;19.90;99.90;;;;;;4972190;28;20012;-80
2022/08/20 03:20:34;;;;;;;;;;;19.90;99.90;;;;;;4975167;28;19930;-80
2022/08/20 03:23:01;;;;;;;;;;;19.90;99.90;;;;;;4961115;28;19926;-80
2022/08/20 03:25:28;;;;;;;;;;;19.90;99.90;;;;;;4975477;28;19938;-79
2022/08/20 03:27:56;;;;;;;;;;;19.90;99.90;;;;;;4975504;28;19932;-80
2022/08/20 03:30:24;;;;;;;;;;;19.90;99.90;;;;;;4967887;28;19934;-79
2022/08/20 03:32:51;;;;;;;;;;;19.90;99.90;;;;;;4967106;28;19930;-80
2022/08/20 03:35:19;;;;;;;;;;;19.90;99.90;;;;;;4969209;28;19926;-79
2022/08/20 03:37:46;;;;;;;;;;;19.90;99.90;;;;;;4972465;28;19927;-79
2022/08/20 03:40:15;;;;;;;;;;;19.90;99.90;;;;;;4980045;28;20005;-79
2022/08/20 03:42:42;;;;;;;;;;;19.90;99.90;;;;;;4979968;28;19929;-80
2022/08/20 03:45:12;;;;;;;;;;;19.80;99.90;;;;;;4957967;28;20182;-79
2022/08/20 03:47:39;;;;;;;;;;;19.90;99.90;;;;;;4971596;28;20021;-79
2022/08/20 03:50:08;;;;;;;;;;;19.80;99.90;;;;;;4973603;28;20020;-79
2022/08/20 03:52:34;;;;;;;;;;;19.80;99.90;;;;;;4969135;28;19930;-81
2022/08/20 03:55:01;;;;;;;;;;;19.80;99.90;;;;;;4965754;28;19940;-79
2022/08/20 03:57:28;;;;;;;;;;;19.70;99.90;;;;;;4966333;28;19929;-80
2022/08/20 03:59:55;;;;;;;;;;;19.70;99.90;;;;;;4973567;28;20012;-80
2022/08/20 04:02:23;;;;;;;;;;;19.70;99.90;;;;;;4962263;28;20618;-80
2022/08/20 04:04:50;;;;;;;;;;;19.70;99.90;;;;;;4972427;28;19936;-81
2022/08/20 04:07:24;;;;;;;;;;;19.70;99.90;;;;;;4975999;28;19926;-80
2022/08/20 04:09:51;;;;;;;;;;;19.70;99.90;;;;;;4975902;28;19996;-80
2022/08/20 04:12:17;;;;;;;;;;;19.80;99.90;;;;;;4974357;28;20393;-79
2022/08/20 04:14:44;;;;;;;;;;;19.70;99.90;;;;;;4973208;28;20427;-80
2022/08/20 04:17:12;;;;;;;;;;;19.80;99.90;;;;;;4973485;28;19933;-80
2022/08/20 04:19:40;;;;;;;;;;;19.80;99.90;;;;;;4968434;28;19949;-79
2022/08/20 04:22:07;;;;;;;;;;;19.80;99.90;;;;;;4968837;28;20005;-80
2022/08/20 04:24:36;;;;;;;;;;;19.80;99.90;;;;;;4973319;28;20367;-80
2022/08/20 04:27:03;;;;;;;;;;;19.90;99.90;;;;;;4968697;28;20490;-79
2022/08/20 04:29:32;;;;;;;;;;;19.90;99.90;;;;;;4967113;28;20820;-79
2022/08/20 04:31:59;;;;;;;;;;;19.90;99.90;;;;;;4967747;28;19926;-78
2022/08/20 04:34:27;;;;;;;;;;;19.90;99.90;;;;;;4960700;28;19929;-79
2022/08/20 04:36:55;;;;;;;;;;;19.90;99.90;;;;;;4972756;28;20033;-77
2022/08/20 04:39:22;;;;;;;;;;;19.90;99.90;;;;;;4970606;28;19929;-80
2022/08/20 04:41:49;;;;;;;;;;;19.90;99.90;;;;;;4958980;28;19933;-80
2022/08/20 04:44:15;;;;;;;;;;;20.00;99.90;;;;;;4971886;28;19930;-81
2022/08/20 04:46:43;;;;;;;;;;;20.00;99.90;;;;;;4972742;28;20664;-80
2022/08/20 04:49:11;;;;;;;;;;;20.00;99.90;;;;;;4957421;28;20622;-80
2022/08/20 04:51:37;;;;;;;;;;;20.00;99.90;;;;;;4971528;28;19929;-79
2022/08/20 04:54:05;;;;;;;;;;;20.00;99.90;;;;;;4973850;28;19938;-79
2022/08/20 04:56:38;;;;;;;;;;;20.00;99.90;;;;;;4971047;28;19962;-80
2022/08/20 04:59:06;;;;;;;;;;;20.00;99.90;;;;;;4971104;28;19933;-77
2022/08/20 05:01:32;;;;;;;;;;;20.00;99.90;;;;;;4969002;28;19929;-77
2022/08/20 05:03:59;;;;;;;;;;;20.00;99.90;;;;;;4968912;28;19929;-77
2022/08/20 05:06:27;;;;;;;;;;;20.00;99.90;;;;;;4968335;28;19926;-77
2022/08/20 05:08:54;;;;;;;;;;;20.00;99.90;;;;;;4970113;28;20552;-76
2022/08/20 05:11:23;;;;;;;;;;;20.10;99.90;;;;;;4968622;28;19930;-77
2022/08/20 05:13:52;;;;;;;;;;;20.10;99.90;;;;;;4971243;28;19976;-76
2022/08/20 05:16:19;;;;;;;;;;;20.10;99.90;;;;;;4967086;28;19989;-77
2022/08/20 05:18:46;;;;;;;;;;;20.10;99.90;;;;;;4967053;28;19972;-77
2022/08/20 05:21:13;;;;;;;;;;;20.10;99.90;;;;;;4956061;28;19936;-77
2022/08/20 05:23:41;;;;;;;;;;;20.10;99.90;;;;;;4971200;28;20288;-77
2022/08/20 05:26:09;;;;;;;;;;;20.10;99.90;;;;;;4974721;28;20410;-77
2022/08/20 05:28:38;;;;;;;;;;;20.10;99.90;;;;;;4982307;28;19918;-77
2022/08/20 05:31:08;;;;;;;;;;;20.20;99.90;;;;;;4979755;28;20553;-77
2022/08/20 05:33:35;;;;;;;;;;;20.20;99.90;;;;;;4965387;28;19926;-77
2022/08/20 05:36:05;;;;;;;;;;;20.30;99.90;;;;;;4966087;28;19926;-77
2022/08/20 05:38:31;;;;;;;;;;;20.30;99.90;;;;;;4962041;28;19937;-77
2022/08/20 05:40:58;;;;;;;;;;;21.50;99.90;;;;;;4964104;28;19922;-77
2022/08/20 05:43:25;;;;;;;;;;;20.40;99.90;;;;;;4959018;28;20664;-77
2022/08/20 05:45:53;;;;;;;;;;;20.40;99.90;;;;;;4965974;28;19930;-77
2022/08/20 05:48:21;;;;;;;;;;;20.50;99.90;;;;;;4965097;28;20091;-77
2022/08/20 05:50:49;;;;;;;;;;;20.50;99.90;;;;;;4969453;28;19930;-77
2022/08/20 05:53:16;;;;;;;;;;;20.50;99.90;;;;;;4964688;28;19927;-80
2022/08/20 05:55:44;;;;;;;;;;;20.60;99.90;;;;;;4970822;28;19934;-80
2022/08/20 05:58:15;;;;;;;;;;;20.60;99.90;;;;;;4970457;28;21401;-81
2022/08/20 06:00:41;;;;;;;;;;;20.60;99.90;;;;;;4970265;28;19937;-80
2022/08/20 06:05:56;;;;;;;;;;;20.70;99.90;;;;;;4972411;28;19933;-80
2022/08/20 06:08:23;;;;;;;;;;;20.60;99.90;;;;;;4980256;28;19981;-80
2022/08/20 06:10:49;;;;;;;;;;;20.70;99.90;;;;;;4975193;28;20008;-82
2022/08/20 06:13:16;;;;;;;;;;;20.60;99.90;;;;;;4956321;28;20021;-79
2022/08/20 06:15:43;;;;;;;;;;;20.60;99.90;;;;;;4977589;28;19925;-79
2022/08/20 06:18:11;;;;;;;;;;;20.60;99.90;;;;;;4981745;28;20407;-79
2022/08/20 06:20:38;;;;;;;;;;;20.50;99.90;;;;;;4979482;28;19965;-80
2022/08/20 06:23:05;;;;;;;;;;;20.60;99.90;;;;;;4984047;28;19930;-79
2022/08/20 06:25:32;;;;;;;;;;;20.60;99.90;;;;;;4973659;28;20013;-81
2022/08/20 06:27:59;;;;;;;;;;;20.60;99.90;;;;;;4977736;28;19970;-78
2022/08/20 06:30:26;;;;;;;;;;;20.60;99.90;;;;;;4974044;28;19932;-78
2022/08/20 06:32:52;;;;;;;;;;;20.70;99.90;;;;;;4970541;28;19926;-78
2022/08/20 06:35:20;;;;;;;;;;;20.80;99.90;;;;;;4970740;28;19926;-79
2022/08/20 06:37:47;;;;;;;;;;;20.80;99.90;;;;;;4975491;28;20442;-78
2022/08/20 06:40:15;;;;;;;;;;;20.80;99.90;;;;;;4974527;28;19933;-78
2022/08/20 06:42:43;;;;;;;;;;;20.80;99.90;;;;;;4974475;28;19926;-77
2022/08/20 06:45:11;;;;;;;;;;;20.90;99.90;;;;;;4973462;28;19928;-81
2022/08/20 06:47:39;;;;;;;;;;;21.00;99.90;;;;;;4974035;28;19926;-82
2022/08/20 06:50:07;;;;;;;;;;;21.00;99.90;;;;;;4970900;28;19930;-81
2022/08/20 06:52:36;;;;;;;;;;;21.00;99.90;;;;;;4975721;28;19933;-78
2022/08/20 06:55:03;;;;;;;;;;;21.00;99.90;;;;;;4964032;28;19926;-77
2022/08/20 06:57:30;;;;;;;;;;;21.00;99.90;;;;;;4959749;28;19929;-76
2022/08/20 06:59:57;;;;;;;;;;;20.90;99.90;;;;;;4959408;28;19989;-79
2022/08/20 07:02:23;;;;;;;;;;;21.00;99.90;;;;;;4957852;28;19973;-81
2022/08/20 07:04:50;;;;;;;;;;;20.90;99.90;;;;;;4953811;28;20580;-78
2022/08/20 07:07:18;;;;;;;;;;;20.90;99.90;;;;;;4957514;28;19926;-78
2022/08/20 07:09:46;;;;;;;;;;;21.00;99.90;;;;;;4955598;28;19964;-80
2022/08/20 07:12:13;;;;;;;;;;;21.10;99.90;;;;;;4952712;28;19926;-77
2022/08/20 07:14:40;;;;;;;;;;;21.10;99.90;;;;;;4954569;28;19926;-77
2022/08/20 07:17:06;;;;;;;;;;;21.20;99.90;;;;;;4978558;28;19984;-77
2022/08/20 07:19:33;;;;;;;;;;;21.30;99.90;;;;;;4967900;28;19925;-78
2022/08/20 07:22:00;;;;;;;;;;;21.40;99.90;;;;;;4979137;28;19926;-77
2022/08/20 07:24:27;;;;;;;;;;;21.50;99.90;;;;;;4974283;28;19921;-77
2022/08/20 07:26:55;;;;;;;;;;;21.60;99.90;;;;;;4985982;28;20056;-78
2022/08/20 07:32:32;;;;;;;;;;;21.60;99.90;;;;;;4968536;28;19976;-78
2022/08/20 07:34:52;;;;;;;;;;;21.80;99.90;;;;;;4960478;28;19933;-77
2022/08/20 07:37:19;;;;;;;;;;;21.90;99.90;;;;;;4982326;28;19925;-80
2022/08/20 07:39:48;;;;;;;;;;;22.00;99.90;;;;;;4978205;28;19948;-80
2022/08/20 07:42:16;;;;;;;;;;;22.10;99.90;;;;;;4970854;28;19929;-79
2022/08/20 07:44:43;;;;;;;;;;;22.20;99.90;;;;;;4965049;28;19941;-79
2022/08/20 07:47:09;;;;;;;;;;;22.30;99.90;;;;;;4975876;28;19922;-79
2022/08/20 07:49:37;;;;;;;;;;;22.30;99.90;;;;;;4976304;28;20376;-79
2022/08/20 07:52:05;;;;;;;;;;;22.30;99.90;;;;;;4980637;28;20017;-80
2022/08/20 07:54:31;;;;;;;;;;;22.20;99.90;;;;;;4973734;28;19930;-79
2022/08/20 07:57:00;;;;;;;;;;;22.30;99.90;;;;;;4982798;28;19937;-79
2022/08/20 07:59:28;;;;;;;;;;;22.30;99.90;;;;;;4981336;28;19922;-80
2022/08/20 08:01:54;;;;;;;;;;;22.40;99.90;;;;;;4987341;28;20427;-80
2022/08/20 08:04:23;;;;;;;;;;;22.50;99.90;;;;;;4977886;28;20361;-79
2022/08/20 08:06:50;;;;;;;;;;;22.50;99.90;;;;;;4989170;28;19945;-81
2022/08/20 08:09:16;;;;;;;;;;;22.50;99.90;;;;;;4980559;28;19933;-80
2022/08/20 08:11:49;;;;;;;;;;;22.40;99.90;;;;;;4992586;28;19935;-80
2022/08/20 08:14:17;;;;;;;;;;;22.40;99.90;;;;;;4984012;28;19932;-80
2022/08/20 08:16:45;;;;;;;;;;;22.30;99.90;;;;;;4984398;28;20740;-80
2022/08/20 08:19:13;;;;;;;;;;;22.30;99.90;;;;;;4987478;28;19929;-79
2022/08/20 08:21:41;;;;;;;;;;;22.40;99.90;;;;;;4979461;28;19932;-79
2022/08/20 08:24:07;;;;;;;;;;;22.40;99.90;;;;;;4974831;28;19977;-79
2022/08/20 08:26:34;;;;;;;;;;;22.20;99.90;;;;;;4966954;28;20352;-79
2022/08/20 08:29:01;;;;;;;;;;;22.00;99.90;;;;;;4973062;28;19976;-79
2022/08/20 08:31:28;;;;;;;;;;;21.80;99.90;;;;;;4978932;28;19933;-80
2022/08/20 08:33:56;;;;;;;;;;;21.60;99.90;;;;;;4987465;28;19932;-80
2022/08/20 08:36:23;;;;;;;;;;;21.60;99.90;;;;;;4984033;28;20347;-80
2022/08/20 08:38:50;;;;;;;;;;;21.60;99.90;;;;;;4978510;28;19980;-79
2022/08/20 08:41:18;;;;;;;;;;;21.70;99.90;;;;;;4979043;28;19936;-80
2022/08/20 08:43:46;;;;;;;;;;;21.90;99.90;;;;;;4975829;28;19926;-79
2022/08/20 08:46:15;;;;;;;;;;;22.20;99.90;;;;;;4974893;28;19934;-80
2022/08/20 08:48:44;;;;;;;;;;;22.50;99.90;;;;;;4971010;28;19922;-80
2022/08/20 08:51:15;;;;;;;;;;;22.80;99.90;;;;;;4985130;28;19980;-80
2022/08/20 08:53:45;;;;;;;;;;;23.30;99.90;;;;;;4984237;28;19926;-80
2022/08/20 08:56:14;;;;;;;;;;;23.60;99.90;;;;;;4981351;28;19961;-80
2022/08/20 08:58:43;;;;;;;;;;;23.70;99.90;;;;;;4980498;28;19929;-80
2022/08/20 09:01:12;;;;;;;;;;;24.00;99.90;;;;;;4980555;28;19926;-80
2022/08/20 09:03:42;;;;;;;;;;;24.40;99.90;;;;;;4991752;28;19933;-80
2022/08/20 09:06:11;;;;;;;;;;;25.10;99.90;;;;;;4981318;28;19921;-80
2022/08/20 09:08:43;;;;;;;;;;;25.70;99.90;;;;;;4969674;28;20434;-80
2022/08/20 09:11:10;;;;;;;;;;;26.10;99.90;;;;;;4970043;28;19997;-79
2022/08/20 09:13:37;;;;;;;;;;;26.10;99.90;;;;;;4979317;28;19934;-79
2022/08/20 09:16:04;;;;;;;;;;;26.00;99.90;;;;;;4975690;28;19937;-77
2022/08/20 09:18:31;;;;;;;;;;;25.90;99.90;;;;;;4980069;28;20422;-77
2022/08/20 09:20:58;;;;;;;;;;;26.00;99.90;;;;;;4980313;28;19973;-77
2022/08/20 09:23:25;;;;;;;;;;;26.10;99.90;;;;;;4983640;28;19937;-76
2022/08/20 09:25:53;;;;;;;;;;;26.20;99.90;;;;;;4969557;28;20388;-77
2022/08/20 09:28:20;;;;;;;;;;;26.30;99.90;;;;;;4974516;28;20339;-76
2022/08/20 09:30:46;;;;;;;;;;;26.30;99.90;;;;;;4967019;28;19922;-77
2022/08/20 09:33:13;;;;;;;;;;;26.40;99.90;;;;;;4969011;28;20647;-77
2022/08/20 09:35:40;;;;;;;;;;;26.50;99.90;;;;;;4978523;28;20403;-77
2022/08/20 09:38:07;;;;;;;;;;;26.50;99.90;;;;;;4990800;28;20431;-77
2022/08/20 09:40:34;;;;;;;;;;;26.30;99.90;;;;;;4990258;28;19929;-77
2022/08/20 09:43:04;;;;;;;;;;;26.00;99.90;;;;;;4987316;28;19934;-77
2022/08/20 09:45:31;;;;;;;;;;;25.70;99.90;;;;;;4970277;28;20164;-78
2022/08/20 09:47:58;;;;;;;;;;;25.40;99.90;;;;;;4972060;28;19933;-78
2022/08/20 09:50:25;;;;;;;;;;;25.20;99.90;;;;;;4963652;28;19929;-78
2022/08/20 09:52:52;;;;;;;;;;;25.00;99.90;;;;;;4977000;28;20310;-78
2022/08/20 09:55:21;;;;;;;;;;;25.00;99.90;;;;;;4987794;28;19922;-78
2022/08/20 09:57:52;;;;;;;;;;;24.90;99.90;;;;;;4971317;28;19925;-78
2022/08/20 10:00:21;;;;;;;;;;;24.90;99.90;;;;;;4995351;28;19945;-78
2022/08/20 10:02:51;;;;;;;;;;;24.70;99.90;;;;;;4984341;28;19930;-77
2022/08/20 10:05:19;;;;;;;;;;;24.50;99.90;;;;;;4978189;28;19965;-78
2022/08/20 10:07:46;;;;;;;;;;;24.40;99.90;;;;;;4990107;28;20699;-78
2022/08/20 10:10:14;;;;;;;;;;;24.20;99.90;;;;;;4960820;28;19926;-79
2022/08/20 10:12:41;;;;;;;;;;;24.10;99.90;;;;;;4973989;28;19937;-78
2022/08/20 10:15:10;;;;;;;;;;;24.10;99.90;;;;;;4968635;28;20388;-77
2022/08/20 10:17:38;;;;;;;;;;;23.90;99.90;;;;;;4971992;28;19965;-76
2022/08/20 10:20:07;;;;;;;;;;;23.90;99.90;;;;;;4972081;28;19922;-76
2022/08/20 10:22:33;;;;;;;;;;;23.80;99.90;;;;;;4969195;28;19926;-77
2022/08/20 10:25:00;;;;;;;;;;;23.80;99.90;;;;;;4972570;28;19981;-78
2022/08/20 10:27:27;;;;;;;;;;;23.70;99.90;;;;;;4987195;28;20468;-77
2022/08/20 10:29:54;;;;;;;;;;;23.80;99.90;;;;;;4975675;28;19968;-77
2022/08/20 10:32:21;;;;;;;;;;;23.80;99.90;;;;;;4983421;28;19981;-77
2022/08/20 10:34:49;;;;;;;;;;;23.80;99.90;;;;;;4970426;28;19961;-77
2022/08/20 10:37:16;;;;;;;;;;;23.90;99.90;;;;;;4968546;28;19922;-77
2022/08/20 10:39:42;;;;;;;;;;;24.00;99.90;;;;;;4976774;28;19980;-77
2022/08/20 10:42:09;;;;;;;;;;;24.20;99.90;;;;;;4974339;28;20035;-78
2022/08/20 10:44:36;;;;;;;;;;;24.40;99.90;;;;;;4989695;28;20024;-77
2022/08/20 10:47:13;;;;;;;;;;;24.50;99.90;;;;;;4987434;28;19925;-77
2022/08/20 10:49:40;;;;;;;;;;;24.50;99.90;;;;;;4978360;28;19933;-78
2022/08/20 10:52:08;;;;;;;;;;;24.60;99.90;;;;;;4973745;28;19926;-76
2022/08/20 10:54:35;;;;;;;;;;;24.70;99.90;;;;;;4969126;28;19976;-78
2022/08/20 10:57:02;;;;;;;;;;;24.70;99.90;;;;;;4972625;28;19932;-77
2022/08/20 10:59:29;;;;;;;;;;;24.60;99.90;;;;;;4965372;28;19934;-78
2022/08/20 11:01:55;;;;;;;;;;;24.70;99.90;;;;;;4970625;28;20359;-78
2022/08/20 11:04:22;;;;;;;;;;;24.80;99.90;;;;;;4972213;28;19929;-78
2022/08/20 11:06:49;;;;;;;;;;;25.20;99.90;;;;;;4965156;28;19930;-77
2022/08/20 11:09:17;;;;;;;;;;;25.30;99.90;;;;;;4974937;28;19954;-77
2022/08/20 11:11:47;;;;;;;;;;;25.50;99.90;;;;;;4966925;28;20070;-76
2022/08/20 11:14:15;;;;;;;;;;;25.60;99.90;;;;;;4968409;28;20293;-75
2022/08/20 11:16:42;;;;;;;;;;;25.70;99.90;;;;;;4976234;28;19972;-75
2022/08/20 11:19:08;;;;;;;;;;;25.70;99.90;;;;;;4971316;28;20022;-75
2022/08/20 11:21:35;;;;;;;;;;;25.50;99.90;;;;;;4979193;28;19937;-77
2022/08/20 11:24:02;;;;;;;;;;;25.30;99.90;;;;;;4975219;28;19922;-75
2022/08/20 11:26:30;;;;;;;;;;;25.40;99.90;;;;;;4966635;28;19926;-75
2022/08/20 11:28:57;;;;;;;;;;;25.30;99.90;;;;;;4980775;28;20017;-75
2022/08/20 11:31:23;;;;;;;;;;;25.30;99.90;;;;;;4973659;28;19984;-76
2022/08/20 11:33:50;;;;;;;;;;;25.20;99.90;;;;;;4973425;28;19982;-75
2022/08/20 11:36:17;;;;;;;;;;;25.00;99.90;;;;;;4982562;28;19969;-75
2022/08/20 11:38:43;;;;;;;;;;;25.00;99.90;;;;;;4971573;28;19926;-77
2022/08/20 11:41:10;;;;;;;;;;;25.00;99.90;;;;;;4972497;28;19937;-75
2022/08/20 11:43:38;;;;;;;;;;;24.90;99.90;;;;;;4963965;28;19926;-75
2022/08/20 11:46:05;;;;;;;;;;;24.80;99.90;;;;;;4971289;28;19926;-75
2022/08/20 11:48:31;;;;;;;;;;;24.70;99.90;;;;;;4981009;28;19934;-76
2022/08/20 11:50:58;;;;;;;;;;;24.60;99.90;;;;;;4983359;28;20335;-75
2022/08/20 11:53:25;;;;;;;;;;;24.30;99.90;;;;;;4979944;28;20214;-75
2022/08/20 11:55:52;;;;;;;;;;;24.20;99.90;;;;;;4979245;28;19937;-76
2022/08/20 11:58:18;;;;;;;;;;;24.20;99.90;;;;;;4975205;28;20020;-76
2022/08/20 12:00:46;;;;;;;;;;;24.10;99.90;;;;;;4979063;28;20368;-75
2022/08/20 12:03:13;;;;;;;;;;;24.10;99.90;;;;;;4983785;28;19926;-75
2022/08/20 12:05:41;;;;;;;;;;;24.10;99.90;;;;;;4980472;28;20512;-75
2022/08/20 12:08:08;;;;;;;;;;;24.10;99.90;;;;;;4977270;28;19926;-75
2022/08/20 12:10:35;;;;;;;;;;;24.30;99.90;;;;;;4970997;28;20487;-76
2022/08/20 12:13:01;;;;;;;;;;;24.50;99.90;;;;;;4977906;28;19925;-75
2022/08/20 12:15:28;;;;;;;;;;;24.60;99.90;;;;;;4977266;28;19933;-76
2022/08/20 12:17:56;;;;;;;;;;;24.70;99.90;;;;;;4974164;28;19985;-74
2022/08/20 12:20:23;;;;;;;;;;;24.70;99.90;;;;;;4976884;28;20307;-75
2022/08/20 12:22:51;;;;;;;;;;;24.70;99.90;;;;;;4981266;28;19933;-76
2022/08/20 12:25:18;;;;;;;;;;;24.70;99.90;;;;;;4977455;28;19922;-76
2022/08/20 12:27:45;;;;;;;;;;;24.90;99.90;;;;;;4988935;28;19926;-76
2022/08/20 12:30:14;;;;;;;;;;;25.20;99.90;;;;;;4968607;28;19930;-76
2022/08/20 12:32:41;;;;;;;;;;;25.40;99.90;;;;;;4984116;28;19929;-76
2022/08/20 12:35:10;;;;;;;;;;;25.60;99.90;;;;;;4977664;28;19922;-76
2022/08/20 12:37:37;;;;;;;;;;;25.70;99.90;;;;;;4980093;28;19932;-76
2022/08/20 12:40:05;;;;;;;;;;;25.80;99.90;;;;;;4970994;28;19929;-75
2022/08/20 12:42:32;;;;;;;;;;;26.00;99.90;;;;;;4970608;28;19926;-76
2022/08/20 12:44:59;;;;;;;;;;;26.30;99.90;;;;;;4977710;28;19926;-76
2022/08/20 12:47:27;;;;;;;;;;;26.60;99.90;;;;;;4973948;28;20395;-76
2022/08/20 12:49:55;;;;;;;;;;;26.80;99.90;;;;;;4989141;28;20079;-74
2022/08/20 12:52:24;;;;;;;;;;;27.00;99.90;;;;;;4970525;28;19926;-75
2022/08/20 12:54:51;;;;;;;;;;;27.00;99.90;;;;;;4975080;28;19933;-76
2022/08/20 12:57:22;;;;;;;;;;;26.90;99.90;;;;;;4968395;28;19922;-76
2022/08/20 12:59:49;;;;;;;;;;;27.00;99.90;;;;;;4975518;28;19941;-78
2022/08/20 13:02:16;;;;;;;;;;;27.10;99.90;;;;;;4952445;28;19976;-77
2022/08/20 13:04:43;;;;;;;;;;;27.20;99.90;;;;;;4976761;28;19951;-76
2022/08/20 13:07:10;;;;;;;;;;;27.30;99.90;;;;;;4970164;28;20356;-75
2022/08/20 13:09:38;;;;;;;;;;;27.30;99.90;;;;;;4971493;28;20427;-76
2022/08/20 13:12:05;;;;;;;;;;;27.10;99.90;;;;;;4970288;28;20639;-76
2022/08/20 13:14:32;;;;;;;;;;;27.00;99.90;;;;;;4969927;28;20300;-74
2022/08/20 13:16:59;;;;;;;;;;;27.00;99.90;;;;;;4969965;28;20618;-75
2022/08/20 13:19:27;;;;;;;;;;;27.00;99.90;;;;;;4962187;28;20407;-76
2022/08/20 13:21:54;;;;;;;;;;;27.00;99.90;;;;;;4967733;28;20142;-75
2022/08/20 13:24:20;;;;;;;;;;;27.10;99.90;;;;;;4972262;28;19929;-74
2022/08/20 13:26:49;;;;;;;;;;;27.20;99.90;;;;;;4972289;28;19932;-75
2022/08/20 13:29:16;;;;;;;;;;;27.20;99.90;;;;;;4968949;28;19994;-75
2022/08/20 13:31:43;;;;;;;;;;;27.30;99.90;;;;;;4970143;28;19952;-75
2022/08/20 13:34:10;;;;;;;;;;;27.60;99.90;;;;;;4970005;28;20374;-74
2022/08/20 13:36:37;;;;;;;;;;;27.90;99.90;;;;;;4967674;28;19926;-76
2022/08/20 13:39:04;;;;;;;;;;;27.50;99.90;;;;;;4970696;28;20281;-76
2022/08/20 13:41:31;;;;;;;;;;;27.20;99.90;;;;;;4972889;28;19972;-76
2022/08/20 13:43:59;;;;;;;;;;;26.90;99.90;;;;;;4964067;28;19926;-77
2022/08/20 13:46:26;;;;;;;;;;;26.90;99.90;;;;;;4964531;28;19933;-77
2022/08/20 13:48:54;;;;;;;;;;;27.00;99.90;;;;;;4971850;28;19929;-76
2022/08/20 13:51:22;;;;;;;;;;;27.20;99.90;;;;;;4976065;28;19930;-76
2022/08/20 13:53:49;;;;;;;;;;;27.40;99.90;;;;;;4972509;28;19949;-77
2022/08/20 13:56:16;;;;;;;;;;;27.40;99.90;;;;;;4990859;28;19936;-76
2022/08/20 13:58:44;;;;;;;;;;;27.40;99.90;;;;;;4970727;28;19930;-76
2022/08/20 14:01:12;;;;;;;;;;;27.30;99.90;;;;;;4966576;28;19950;-77
2022/08/20 14:03:38;;;;;;;;;;;27.20;99.90;;;;;;4967461;28;19930;-75
2022/08/20 14:06:05;;;;;;;;;;;27.20;99.90;;;;;;4962740;28;19956;-76
2022/08/20 14:08:32;;;;;;;;;;;27.10;99.90;;;;;;4961381;28;19925;-76
2022/08/20 14:10:59;;;;;;;;;;;27.10;99.90;;;;;;4960757;28;19929;-74
2022/08/20 14:13:26;;;;;;;;;;;27.10;99.90;;;;;;4959838;28;19993;-74
2022/08/20 14:15:53;;;;;;;;;;;27.10;99.90;;;;;;4961136;28;19926;-74
2022/08/20 14:18:22;;;;;;;;;;;27.10;99.90;;;;;;4962400;28;19930;-76
2022/08/20 14:20:48;;;;;;;;;;;27.10;99.90;;;;;;4961348;28;19930;-76
2022/08/20 14:23:15;;;;;;;;;;;27.40;99.90;;;;;;4960232;28;20008;-75